aviador You're here:

KMSS Decoded Metar

MASSENA in NY, USA
Report Time2017-04-29 10:53:00
UTC Time2017-04-29 11:14:52
Flight Rules vfr VFR
Wind230° at 08 kt
W.Decomp.*RWY 23: 7.8 kt HW 1.9 kt RCW
RWY 27: 7.2 kt HW 3.5 kt LCW
W.Rank230° ranks 2
Current wind is below 230° avg. (9.0)
Visibility9999 m
Phenomena:N/A
Clouds:Overcast 110 Hf
Expected CloudBase > 2,800 ft AGL from Temp-Dew spread
Ceiling11,000 ft
Temp14°C (ISA -1)
Dew Point07°C (63% RH)
AAT10.4°C
QNH1013 hPa
Density Alt285 ft
Elevation217 ft
Report Wrong Elevation
Raw Report
KMSS 291053Z AUTO 23008KT 10SM OVC110 14/07 A2992=

Extra information for KMSS:More info

Metar Taf Metar & Taf Last 4 Metars F.Rules Stats Wind Profile Meteogram Temp Stats Airport Information Weather charts Add Link Nearby VenuesMetar ALERT Operation Metar Decoded Social comments

AIRNAV info for KMSS